Time;durP1;ratioP1;P1;durP2;ratioP2;P2;SDS_P1;SDS_P2;PMS_P1;PMS_P2;Temp;Humidity;BMP_temperature;BMP_pressure;BME280_temperature;BME280_humidity;BME280_pressure;Samples;Min_cycle;Max_cycle;Signal;HPM_P1;HPM_P2
2023/08/11 00:04:20;;;;;;;7.13;4.30;;;17.80;1.00;;;;;;20831863;28;20133;-40
2023/08/11 00:14:21;;;;;;;6.03;4.13;;;17.70;1.00;;;;;;20833736;28;20094;-40
2023/08/11 00:24:21;;;;;;;5.25;3.90;;;17.60;1.00;;;;;;20831066;28;20566;-40
2023/08/11 00:34:22;;;;;;;7.53;5.30;;;17.50;1.00;;;;;;20821142;28;20107;-40
2023/08/11 00:44:22;;;;;;;7.10;5.13;;;17.50;1.00;;;;;;20830502;28;20056;-40
2023/08/11 00:54:25;;;;;;;7.30;5.68;;;17.60;1.00;;;;;;20831028;28;20507;-40
2023/08/11 01:04:25;;;;;;;7.78;6.18;;;17.60;1.00;;;;;;20834356;28;20044;-41
2023/08/11 01:15:01;;;;;;;9.60;6.88;;;17.50;1.00;;;;;;20827537;28;20043;-41
2023/08/11 01:25:02;;;;;;;9.73;7.80;;;17.50;1.00;;;;;;20828808;28;20045;-40
2023/08/11 01:35:05;;;;;;;11.05;7.68;;;17.50;1.00;;;;;;20822249;28;20041;-40
2023/08/11 01:45:07;;;;;;;8.77;6.32;;;17.60;1.00;;;;;;20826558;28;20052;-40
2023/08/11 01:55:13;;;;;;;10.35;6.50;;;17.60;1.00;;;;;;20822075;28;20099;-40
2023/08/11 02:05:15;;;;;;;8.77;7.13;;;17.50;1.00;;;;;;20821123;28;20037;-40
2023/08/11 02:15:16;;;;;;;10.18;7.38;;;17.30;1.00;;;;;;20816122;28;20056;-40
2023/08/11 02:25:17;;;;;;;12.50;7.63;;;17.30;1.00;;;;;;20821557;28;20195;-40
2023/08/11 02:35:17;;;;;;;9.23;6.85;;;17.10;1.00;;;;;;20820334;28;20227;-40
2023/08/11 02:45:18;;;;;;;9.88;7.38;;;17.10;1.00;;;;;;20816103;28;20329;-40
2023/08/11 02:55:19;;;;;;;11.77;8.10;;;16.90;1.00;;;;;;20838799;28;20547;-40
2023/08/11 03:05:20;;;;;;;14.70;9.65;;;16.80;1.00;;;;;;20830908;28;20476;-40
2023/08/11 03:15:20;;;;;;;9.80;8.00;;;16.70;1.00;;;;;;20831867;28;20408;-40
2023/08/11 03:25:21;;;;;;;12.32;9.27;;;16.70;1.00;;;;;;20833917;28;20128;-40
2023/08/11 03:35:22;;;;;;;15.13;11.63;;;16.60;1.00;;;;;;20826950;28;20044;-40
2023/08/11 03:45:22;;;;;;;13.87;10.17;;;16.60;1.00;;;;;;20834382;28;20102;-40
2023/08/11 03:55:23;;;;;;;14.15;11.32;;;16.50;1.00;;;;;;20829684;28;21062;-40
2023/08/11 04:05:24;;;;;;;16.50;12.55;;;16.50;4.20;;;;;;20820498;28;20083;-40
2023/08/11 04:15:24;;;;;;;16.58;12.32;;;16.40;6.30;;;;;;20825864;28;20079;-40
2023/08/11 04:25:25;;;;;;;21.55;15.13;;;16.40;6.70;;;;;;20825278;28;20056;-40
2023/08/11 04:35:26;;;;;;;25.60;18.40;;;16.50;12.10;;;;;;20821834;28;20037;-40
2023/08/11 04:45:28;;;;;;;18.23;14.88;;;16.60;43.10;;;;;;20825578;28;20860;-40
2023/08/11 04:55:30;;;;;;;24.75;18.33;;;16.50;57.00;;;;;;20818772;28;20476;-40
2023/08/11 05:05:31;;;;;;;21.27;16.85;;;16.50;53.90;;;;;;20823019;28;20453;-40
2023/08/11 05:15:31;;;;;;;20.73;16.00;;;16.50;38.70;;;;;;20821464;28;20037;-40
2023/08/11 05:25:32;;;;;;;18.98;15.98;;;16.70;18.80;;;;;;20831893;28;20560;-40
2023/08/11 05:35:32;;;;;;;23.98;19.05;;;17.00;1.00;;;;;;20843124;28;20037;-40
2023/08/11 05:45:33;;;;;;;19.05;15.50;;;17.40;1.00;;;;;;20834447;28;20116;-40
2023/08/11 05:55:33;;;;;;;18.00;13.95;;;17.70;1.00;;;;;;20824067;28;20546;-40
2023/08/11 06:05:34;;;;;;;21.17;15.30;;;18.40;1.00;;;;;;20814224;28;20048;-40
2023/08/11 06:15:35;;;;;;;16.57;12.80;;;18.50;1.00;;;;;;20821519;28;20042;-40
2023/08/11 06:25:35;;;;;;;19.05;14.75;;;18.60;1.00;;;;;;20821357;28;20450;-40
2023/08/11 06:35:36;;;;;;;19.60;14.13;;;19.00;1.00;;;;;;20836946;28;20485;-40
2023/08/11 06:45:37;;;;;;;20.85;13.13;;;19.00;1.00;;;;;;20836649;28;20041;-40
2023/08/11 06:55:37;;;;;;;19.87;11.00;;;19.20;1.00;;;;;;20843722;28;20040;-40
2023/08/11 07:05:38;;;;;;;12.88;9.35;;;19.40;1.00;;;;;;20833017;28;20045;-40
2023/08/11 07:15:40;;;;;;;17.02;10.23;;;19.70;1.00;;;;;;20828013;28;20883;-40
2023/08/11 07:25:41;;;;;;;12.70;9.02;;;20.10;1.00;;;;;;20830855;28;20067;-40
2023/08/11 07:35:41;;;;;;;9.45;7.40;;;20.40;1.00;;;;;;20832886;28;20041;-40
2023/08/11 07:45:42;;;;;;;8.68;6.63;;;20.70;1.00;;;;;;20819506;28;20045;-40
2023/08/11 07:55:42;;;;;;;10.18;6.88;;;21.00;1.00;;;;;;20827214;28;20106;-42
2023/08/11 08:05:43;;;;;;;8.47;5.87;;;21.30;1.00;;;;;;20833260;28;20053;-40
2023/08/11 08:15:43;;;;;;;10.60;6.25;;;21.70;1.00;;;;;;20834740;28;20458;-41
2023/08/11 08:25:44;;;;;;;8.52;5.68;;;22.00;1.00;;;;;;20833932;28;20408;-41
2023/08/11 08:35:45;;;;;;;9.53;5.07;;;22.50;1.00;;;;;;20850319;28;20041;-41
2023/08/11 08:45:48;;;;;;;6.53;4.63;;;23.30;1.00;;;;;;20827521;28;20095;-40
2023/08/11 08:55:49;;;;;;;7.93;4.70;;;23.60;1.00;;;;;;20817630;28;20484;-40
2023/08/11 09:05:50;;;;;;;6.82;4.40;;;23.80;1.00;;;;;;20832118;28;20639;-41
2023/08/11 09:15:50;;;;;;;11.00;7.20;;;24.20;1.00;;;;;;20805805;28;20037;-41
2023/08/11 09:25:54;;;;;;;7.25;4.60;;;24.30;1.00;;;;;;20827887;28;20041;-41
2023/08/11 09:35:55;;;;;;;9.35;5.50;;;24.60;1.00;;;;;;20845157;28;20028;-41
2023/08/11 09:45:55;;;;;;;5.80;3.80;;;25.10;1.00;;;;;;20833344;28;20071;-41
2023/08/11 09:55:58;;;;;;;7.78;4.03;;;25.90;1.00;;;;;;20840712;28;20369;-41
2023/08/11 10:06:00;;;;;;;6.68;3.40;;;26.90;1.00;;;;;;20858711;28;20429;-41
2023/08/11 10:16:01;;;;;;;5.63;3.35;;;26.80;1.00;;;;;;20851682;28;20036;-41
2023/08/11 10:26:02;;;;;;;4.95;3.42;;;27.50;1.00;;;;;;20834571;28;20052;-41
2023/08/11 10:36:04;;;;;;;5.35;3.60;;;27.10;1.00;;;;;;20841519;28;20563;-42
2023/08/11 10:46:17;;;;;;;8.60;4.20;;;27.00;1.00;;;;;;20852205;28;20041;-41
2023/08/11 10:56:28;;;;;;;7.68;5.40;;;27.20;1.00;;;;;;20856526;28;20052;-41
2023/08/11 11:06:29;;;;;;;9.23;5.00;;;27.50;1.00;;;;;;20840797;28;20140;-41
2023/08/11 11:16:30;;;;;;;6.75;4.53;;;27.70;1.00;;;;;;20832420;28;20032;-41
2023/08/11 11:26:32;;;;;;;9.68;5.15;;;28.00;1.00;;;;;;20844528;28;20044;-42
2023/08/11 11:36:33;;;;;;;6.78;4.50;;;28.30;1.00;;;;;;20831009;28;20075;-41
2023/08/11 11:46:34;;;;;;;7.30;3.78;;;28.40;1.00;;;;;;20829933;28;20107;-42
2023/08/11 11:56:34;;;;;;;5.80;3.90;;;28.70;1.00;;;;;;20826282;28;20160;-41
2023/08/11 12:06:36;;;;;;;4.07;3.00;;;28.90;1.00;;;;;;20816385;28;20447;-42
2023/08/11 12:16:36;;;;;;;3.38;2.53;;;29.10;1.00;;;;;;20820761;28;20526;-42
2023/08/11 12:26:37;;;;;;;3.40;2.28;;;28.90;1.00;;;;;;20835315;28;20234;-41
2023/08/11 12:36:37;;;;;;;3.58;2.20;;;29.00;1.00;;;;;;20851468;28;20114;-41
2023/08/11 12:46:39;;;;;;;3.53;2.10;;;28.60;1.00;;;;;;20870767;28;20045;-41
2023/08/11 12:56:39;;;;;;;5.07;2.60;;;28.30;1.00;;;;;;20871826;28;20059;-41
2023/08/11 13:06:40;;;;;;;5.07;3.05;;;28.00;1.00;;;;;;20871522;28;20510;-41
2023/08/11 13:16:41;;;;;;;5.88;4.00;;;27.90;1.00;;;;;;20872778;28;20033;-41
2023/08/11 13:26:41;;;;;;;7.47;4.77;;;28.10;1.00;;;;;;20871819;28;20108;-41
2023/08/11 13:36:42;;;;;;;8.97;5.57;;;27.80;1.00;;;;;;20869570;28;20156;-42
2023/08/11 13:46:42;;;;;;;7.70;4.30;;;27.60;1.00;;;;;;20870148;28;20041;-41
2023/08/11 13:56:43;;;;;;;6.05;3.17;;;27.30;1.00;;;;;;20871041;28;20101;-41
2023/08/11 14:06:43;;;;;;;6.70;2.70;;;27.50;1.00;;;;;;20868257;28;20434;-41
2023/08/11 14:16:44;;;;;;;4.70;1.70;;;27.40;1.00;;;;;;20869923;28;20041;-41
2023/08/11 14:26:44;;;;;;;6.50;2.37;;;27.00;1.00;;;;;;20869079;28;20045;-41
2023/08/11 14:36:45;;;;;;;4.75;2.10;;;26.50;1.00;;;;;;20867506;28;20044;-42
2023/08/11 14:46:46;;;;;;;5.40;1.98;;;26.70;1.00;;;;;;20877087;28;20051;-41
2023/08/11 14:56:46;;;;;;;5.40;1.65;;;26.40;1.00;;;;;;20882752;28;20043;-41
2023/08/11 15:06:47;;;;;;;5.32;1.50;;;25.90;1.00;;;;;;20881443;28;20243;-41
2023/08/11 15:16:47;;;;;;;4.00;1.50;;;25.50;1.00;;;;;;20875434;28;20041;-41
2023/08/11 15:26:48;;;;;;;3.70;1.70;;;25.20;1.00;;;;;;20880206;28;20446;-41
2023/08/11 15:36:48;;;;;;;6.65;2.10;;;24.90;1.00;;;;;;20878350;28;20086;-41
2023/08/11 15:46:50;;;;;;;4.47;1.70;;;24.70;1.00;;;;;;20877562;28;20037;-41
2023/08/11 15:56:50;;;;;;;4.97;2.75;;;24.40;1.00;;;;;;20877270;28;20106;-41
2023/08/11 16:06:51;;;;;;;8.15;3.63;;;24.40;1.00;;;;;;20876446;28;20296;-41
2023/08/11 16:16:52;;;;;;;7.57;2.78;;;24.20;1.00;;;;;;20875735;28;20033;-41
2023/08/11 16:26:52;;;;;;;4.93;2.47;;;24.10;1.00;;;;;;20874704;28;20048;-41
2023/08/11 16:36:53;;;;;;;3.75;1.85;;;23.90;1.00;;;;;;20857202;28;20450;-41
2023/08/11 16:46:53;;;;;;;3.35;1.40;;;23.80;1.00;;;;;;20872856;28;20120;-41
2023/08/11 16:56:54;;;;;;;2.25;1.30;;;23.60;1.00;;;;;;20872730;28;20040;-41
2023/08/11 17:06:55;;;;;;;4.22;2.20;;;23.40;1.00;;;;;;20871672;28;20449;-41
2023/08/11 17:16:55;;;;;;;1.90;1.27;;;23.40;1.00;;;;;;20870183;28;20356;-41
2023/08/11 17:26:56;;;;;;;4.15;1.70;;;23.10;1.00;;;;;;20871421;28;20049;-41
2023/08/11 17:36:57;;;;;;;4.97;1.80;;;23.10;1.00;;;;;;20870494;28;20040;-41
2023/08/11 17:46:58;;;;;;;3.28;1.48;;;23.10;1.00;;;;;;20868473;28;20045;-41
2023/08/11 17:56:59;;;;;;;4.25;1.27;;;22.90;1.00;;;;;;20869406;28;20033;-41
2023/08/11 18:06:59;;;;;;;3.88;1.30;;;22.70;1.00;;;;;;20870834;28;20041;-41
2023/08/11 18:17:00;;;;;;;9.80;1.55;;;22.60;1.00;;;;;;20872025;28;20036;-41
2023/08/11 18:27:00;;;;;;;3.72;1.40;;;22.50;1.00;;;;;;20885143;28;20489;-41
2023/08/11 18:37:01;;;;;;;2.95;1.48;;;22.40;1.00;;;;;;20885027;28;20040;-41
2023/08/11 18:47:01;;;;;;;7.03;1.43;;;22.20;1.00;;;;;;20881947;28;20040;-41
2023/08/11 18:57:02;;;;;;;4.15;1.40;;;22.10;1.00;;;;;;20882517;28;20040;-41
2023/08/11 19:07:02;;;;;;;4.83;1.20;;;22.10;1.00;;;;;;20880898;28;20084;-41
2023/08/11 19:17:04;;;;;;;4.88;1.40;;;22.00;1.00;;;;;;20879603;28;20559;-41
2023/08/11 19:27:04;;;;;;;3.67;1.00;;;21.80;1.00;;;;;;20878911;28;20049;-41
2023/08/11 19:37:05;;;;;;;5.40;1.00;;;21.80;1.00;;;;;;20880399;28;20472;-41
2023/08/11 19:47:05;;;;;;;2.63;1.02;;;21.70;1.00;;;;;;20877417;28;20049;-41
2023/08/11 19:57:06;;;;;;;5.07;1.52;;;21.60;1.00;;;;;;20877837;28;20708;-41
2023/08/11 20:07:06;;;;;;;2.70;1.00;;;21.40;1.00;;;;;;20877780;28;20078;-41
2023/08/11 20:17:07;;;;;;;3.20;1.13;;;21.40;1.00;;;;;;20874093;28;20033;-41
2023/08/11 20:27:07;;;;;;;2.22;1.20;;;21.40;1.00;;;;;;20875270;28;20036;-41
2023/08/11 20:37:08;;;;;;;3.97;1.60;;;21.40;1.00;;;;;;20874010;28;20138;-40
2023/08/11 20:47:09;;;;;;;4.47;1.70;;;21.30;1.00;;;;;;20871525;28;20044;-41
2023/08/11 20:57:13;;;;;;;4.72;2.10;;;21.30;1.00;;;;;;20872908;28;20060;-41
2023/08/11 21:07:14;;;;;;;4.75;2.45;;;21.40;1.00;;;;;;20872079;28;20056;-41
2023/08/11 21:17:14;;;;;;;5.28;2.65;;;21.30;1.00;;;;;;20869327;28;20041;-41
2023/08/11 21:27:16;;;;;;;6.43;3.10;;;21.20;1.00;;;;;;20871697;28;20041;-41
2023/08/11 21:37:17;;;;;;;6.82;3.63;;;21.20;1.00;;;;;;20872099;28;20068;-41
2023/08/11 21:47:17;;;;;;;6.88;3.40;;;21.10;1.00;;;;;;20868249;28;20167;-41
2023/08/11 21:57:18;;;;;;;6.32;3.58;;;21.10;1.00;;;;;;20882348;28;20485;-41
2023/08/11 22:07:19;;;;;;;6.63;3.53;;;21.00;1.00;;;;;;20885353;28;20055;-41
2023/08/11 22:17:19;;;;;;;6.47;3.35;;;20.90;1.00;;;;;;20882731;28;20029;-41
2023/08/11 22:27:20;;;;;;;7.05;3.60;;;20.80;1.00;;;;;;20885498;28;20509;-41
2023/08/11 22:37:25;;;;;;;6.30;3.50;;;20.50;1.00;;;;;;20885439;28;20052;-41
2023/08/11 22:47:25;;;;;;;9.68;3.75;;;20.50;1.00;;;;;;20882305;28;20045;-41
2023/08/11 22:57:26;;;;;;;7.28;4.18;;;20.50;1.00;;;;;;20882370;28;20068;-41
2023/08/11 23:07:28;;;;;;;7.13;4.68;;;20.50;1.00;;;;;;20880423;28;20056;-40
2023/08/11 23:17:32;;;;;;;9.68;5.18;;;20.30;4.70;;;;;;20879475;28;20033;-41
2023/08/11 23:27:33;;;;;;;7.22;4.30;;;20.20;8.10;;;;;;20878004;28;20041;-40
2023/08/11 23:37:34;;;;;;;11.98;5.28;;;20.20;9.00;;;;;;20881007;28;20064;-41
2023/08/11 23:47:35;;;;;;;8.20;4.65;;;20.10;13.50;;;;;;20878045;28;20335;-41
2023/08/11 23:57:35;;;;;;;8.63;5.07;;;20.00;19.30;;;;;;20877307;28;20041;-41
